createdAt,value
2023-05-21T00:00:16.654Z,10.45
2023-05-21T00:00:39.621Z,10.60
2023-05-21T00:01:03.285Z,10.85
2023-05-21T00:01:26.135Z,11.25
2023-05-21T00:01:50.317Z,11.30
2023-05-21T00:02:15.538Z,10.68
2023-05-21T00:02:38.485Z,11.05
2023-05-21T00:03:02.053Z,10.95
2023-05-21T00:03:27.397Z,10.43
2023-05-21T00:03:50.887Z,10.68
2023-05-21T00:04:15.988Z,11.20
2023-05-21T00:04:40.914Z,11.07
2023-05-21T00:05:04.222Z,10.63
2023-05-21T00:05:27.123Z,10.82
2023-05-21T00:05:50.509Z,10.93
2023-05-21T00:06:16.223Z,10.43
2023-05-21T00:06:39.159Z,10.70
2023-05-21T00:07:02.184Z,11.00
2023-05-21T00:07:25.583Z,10.80
2023-05-21T00:07:48.540Z,10.30
2023-05-21T00:08:11.379Z,10.80
2023-05-21T00:08:34.557Z,10.75
2023-05-21T00:08:57.258Z,10.73
2023-05-21T00:09:20.055Z,10.35
2023-05-21T00:09:42.867Z,10.35
2023-05-21T00:10:08.173Z,10.90
2023-05-21T00:10:31.163Z,10.98
2023-05-21T00:10:54.130Z,10.75
2023-05-21T00:11:17.011Z,10.20
2023-05-21T00:11:39.759Z,10.40
2023-05-21T00:12:02.637Z,10.60
2023-05-21T00:12:25.546Z,10.35
2023-05-21T00:12:49.936Z,10.20
2023-05-21T00:13:12.792Z,10.45
2023-05-21T00:13:35.601Z,10.40
2023-05-21T00:13:58.352Z,10.63
2023-05-21T00:14:21.174Z,10.35
2023-05-21T00:14:44.069Z,10.18
2023-05-21T00:15:08.618Z,10.63
2023-05-21T00:15:31.421Z,10.43
2023-05-21T00:15:54.282Z,10.57
2023-05-21T00:16:17.268Z,10.27
2023-05-21T00:16:40.368Z,10.20
2023-05-21T00:17:03.298Z,10.57
2023-05-21T00:17:26.430Z,10.85
2023-05-21T00:17:49.288Z,10.75
2023-05-21T00:18:12.361Z,10.50
2023-05-21T00:18:35.152Z,11.15
2023-05-21T00:18:58.322Z,10.52
2023-05-21T00:19:21.205Z,10.65
2023-05-21T00:19:44.950Z,11.05
2023-05-21T00:20:09.178Z,10.98
2023-05-21T00:20:34.792Z,10.52
2023-05-21T00:20:57.983Z,10.35
2023-05-21T00:21:26.412Z,10.65
2023-05-21T00:21:50.030Z,10.90
2023-05-21T00:22:14.344Z,11.02
2023-05-21T00:22:37.322Z,10.57
2023-05-21T00:23:00.298Z,9.98
2023-05-21T00:23:23.174Z,10.63
2023-05-21T00:23:45.994Z,10.77
2023-05-21T00:24:08.873Z,10.90
2023-05-21T00:24:31.756Z,10.43
2023-05-21T00:24:54.758Z,10.50
2023-05-21T00:25:19.365Z,10.43
2023-05-21T00:25:42.235Z,10.20
2023-05-21T00:26:05.034Z,10.05
2023-05-21T00:26:27.947Z,10.52
2023-05-21T00:26:50.863Z,10.48
2023-05-21T00:27:13.951Z,10.57
2023-05-21T00:27:39.519Z,10.20
2023-05-21T00:28:02.773Z,10.32
2023-05-21T00:28:25.620Z,10.98
2023-05-21T00:28:48.632Z,10.57
2023-05-21T00:29:11.389Z,10.60
2023-05-21T00:29:34.238Z,10.57
2023-05-21T00:29:57.393Z,10.77
2023-05-21T00:30:20.217Z,10.40
2023-05-21T00:30:43.456Z,10.60
2023-05-21T00:31:06.416Z,10.15
2023-05-21T00:31:29.314Z,10.60
2023-05-21T00:31:52.527Z,10.80
2023-05-21T00:32:15.356Z,10.35
2023-05-21T00:32:38.716Z,10.30
2023-05-21T00:33:03.491Z,10.55
2023-05-21T00:33:26.756Z,10.52
2023-05-21T00:33:49.698Z,10.23
2023-05-21T00:34:13.518Z,10.30
2023-05-21T00:34:37.371Z,10.80
2023-05-21T00:35:00.179Z,10.57
2023-05-21T00:35:23.085Z,9.95
2023-05-21T00:35:46.478Z,10.00
2023-05-21T00:36:09.369Z,10.00
2023-05-21T00:36:34.760Z,10.60
2023-05-21T00:36:57.679Z,10.50
2023-05-21T00:37:21.176Z,10.50
2023-05-21T00:37:44.027Z,10.50
2023-05-21T00:38:07.654Z,10.23
2023-05-21T00:38:33.264Z,9.88
2023-05-21T00:38:56.086Z,9.93
2023-05-21T00:39:18.995Z,10.50
2023-05-21T00:39:41.695Z,10.50
2023-05-21T00:40:07.958Z,9.80
2023-05-21T00:40:33.248Z,10.35
2023-05-21T00:40:55.990Z,10.13
2023-05-21T00:41:19.098Z,10.27
2023-05-21T00:41:43.284Z,10.40
2023-05-21T00:42:06.265Z,10.13
2023-05-21T00:42:30.891Z,10.23
2023-05-21T00:42:57.321Z,10.38
2023-05-21T00:43:20.885Z,10.25
2023-05-21T00:43:44.757Z,10.57
2023-05-21T00:44:07.614Z,10.18
2023-05-21T00:44:34.463Z,10.18
2023-05-21T00:44:58.176Z,10.05
2023-05-21T00:45:24.416Z,9.80
2023-05-21T00:45:48.804Z,10.35
2023-05-21T00:46:16.722Z,10.07
2023-05-21T00:46:40.285Z,10.27
2023-05-21T00:47:03.120Z,9.80
2023-05-21T00:47:27.301Z,10.18
2023-05-21T00:47:54.616Z,10.52
2023-05-21T00:48:17.483Z,10.77
2023-05-21T00:48:41.269Z,10.75
2023-05-21T00:49:04.080Z,10.32
2023-05-21T00:49:26.875Z,11.00
2023-05-21T00:49:51.609Z,10.52
2023-05-21T00:50:15.375Z,10.32
2023-05-21T00:50:39.940Z,10.48
2023-05-21T00:51:02.698Z,10.73
2023-05-21T00:51:26.058Z,10.35
2023-05-21T00:51:49.326Z,10.20
2023-05-21T00:52:12.420Z,10.40
2023-05-21T00:52:42.081Z,9.88
2023-05-21T00:53:05.463Z,10.23
2023-05-21T00:53:28.281Z,10.05
2023-05-21T00:53:52.639Z,10.00
2023-05-21T00:54:15.425Z,10.70
2023-05-21T00:54:39.026Z,10.25
2023-05-21T00:55:01.915Z,9.85
2023-05-21T00:55:24.704Z,10.02
2023-05-21T00:55:49.335Z,9.65
2023-05-21T00:56:12.373Z,10.38
2023-05-21T00:56:35.120Z,10.30
2023-05-21T00:56:58.479Z,10.23
2023-05-21T00:57:21.337Z,9.88
2023-05-21T00:57:44.199Z,10.75
2023-05-21T00:58:07.115Z,10.40
2023-05-21T00:58:30.017Z,10.75
2023-05-21T00:58:52.934Z,10.52
2023-05-21T00:59:16.016Z,10.32
2023-05-21T00:59:38.755Z,10.52
2023-05-21T01:00:01.486Z,10.52
2023-05-21T01:00:27.045Z,10.02
2023-05-21T01:00:50.136Z,10.15
2023-05-21T01:01:14.234Z,10.68
2023-05-21T01:01:37.462Z,10.43
2023-05-21T01:02:05.089Z,10.52
2023-05-21T01:02:28.124Z,10.25
2023-05-21T01:02:51.131Z,10.50
2023-05-21T01:03:14.069Z,10.65
2023-05-21T01:03:38.927Z,10.23
2023-05-21T01:04:01.976Z,10.65
2023-05-21T01:04:24.997Z,11.15
2023-05-21T01:04:47.882Z,10.68
2023-05-21T01:05:11.063Z,10.50
2023-05-21T01:05:33.999Z,10.43
2023-05-21T01:06:00.430Z,10.20
2023-05-21T01:06:23.333Z,10.70
2023-05-21T01:06:46.525Z,10.60
2023-05-21T01:07:09.678Z,10.50
2023-05-21T01:07:34.883Z,10.13
2023-05-21T01:07:58.299Z,10.15
2023-05-21T01:08:23.889Z,10.35
2023-05-21T01:08:46.839Z,10.25
2023-05-21T01:09:10.336Z,10.52
2023-05-21T01:09:33.147Z,10.65
2023-05-21T01:09:56.044Z,10.05
2023-05-21T01:10:18.879Z,9.77
2023-05-21T01:10:41.742Z,10.50
2023-05-21T01:11:05.916Z,10.85
2023-05-21T01:11:34.200Z,10.73
2023-05-21T01:11:57.078Z,10.10
2023-05-21T01:12:19.917Z,10.55
2023-05-21T01:12:43.969Z,10.55
2023-05-21T01:13:06.773Z,10.38
2023-05-21T01:13:29.736Z,10.48
2023-05-21T01:13:52.579Z,10.32
2023-05-21T01:14:16.348Z,10.43
2023-05-21T01:14:39.586Z,10.38
2023-05-21T01:15:02.371Z,10.50
2023-05-21T01:15:25.116Z,10.63
2023-05-21T01:15:47.894Z,10.35
2023-05-21T01:16:11.665Z,9.80
2023-05-21T01:16:36.479Z,10.32
2023-05-21T01:16:59.806Z,10.65
2023-05-21T01:17:24.558Z,10.48
2023-05-21T01:17:49.082Z,10.07
2023-05-21T01:18:12.391Z,9.95
2023-05-21T01:18:38.379Z,10.07
2023-05-21T01:19:03.555Z,10.18
2023-05-21T01:19:26.999Z,10.27
2023-05-21T01:19:50.416Z,9.88
2023-05-21T01:20:13.340Z,10.38
2023-05-21T01:20:37.769Z,10.07
2023-05-21T01:21:01.047Z,9.90
2023-05-21T01:21:26.338Z,9.70
2023-05-21T01:21:51.280Z,9.70
2023-05-21T01:22:14.490Z,9.63
2023-05-21T01:22:39.906Z,9.90
2023-05-21T01:23:04.216Z,10.02
2023-05-21T01:23:27.563Z,10.50
2023-05-21T01:23:50.509Z,10.35
2023-05-21T01:24:13.632Z,10.40
2023-05-21T01:24:36.422Z,9.57
2023-05-21T01:25:02.921Z,10.20
2023-05-21T01:25:26.018Z,10.43
2023-05-21T01:25:48.955Z,10.40
2023-05-21T01:26:13.354Z,9.73
2023-05-21T01:26:39.093Z,9.88
2023-05-21T01:27:03.231Z,10.23
2023-05-21T01:27:26.027Z,10.43
2023-05-21T01:27:48.940Z,10.50
2023-05-21T01:28:11.798Z,10.30
2023-05-21T01:28:34.620Z,10.57
2023-05-21T01:28:57.499Z,10.65
2023-05-21T01:29:20.329Z,10.25
2023-05-21T01:29:43.211Z,10.63
2023-05-21T01:30:08.557Z,10.60
2023-05-21T01:30:31.360Z,10.73
2023-05-21T01:30:54.169Z,10.25
2023-05-21T01:31:27.797Z,10.30
2023-05-21T01:31:56.620Z,10.43
2023-05-21T01:32:24.109Z,10.23
2023-05-21T01:32:50.425Z,10.70
2023-05-21T01:33:16.038Z,10.52
2023-05-21T01:33:42.022Z,10.93
2023-05-21T01:34:05.722Z,10.48
2023-05-21T01:34:30.948Z,10.07
2023-05-21T01:34:57.192Z,10.32
2023-05-21T01:35:22.706Z,10.65
2023-05-21T01:35:48.209Z,10.65
2023-05-21T01:36:16.180Z,10.27
2023-05-21T01:36:42.471Z,10.48
2023-05-21T01:37:11.732Z,10.02
2023-05-21T01:37:37.332Z,10.10
2023-05-21T01:38:05.183Z,10.15
2023-05-21T01:38:29.925Z,10.82
2023-05-21T01:38:56.148Z,10.85
2023-05-21T01:39:21.648Z,10.48
2023-05-21T01:39:45.215Z,10.75
2023-05-21T01:40:11.252Z,11.05
2023-05-21T01:40:38.331Z,10.88
2023-05-21T01:41:05.114Z,10.02
2023-05-21T01:41:27.933Z,10.50
2023-05-21T01:41:50.771Z,10.18
2023-05-21T01:42:15.319Z,9.95
2023-05-21T01:42:38.138Z,10.18
2023-05-21T01:43:01.014Z,10.70
2023-05-21T01:43:24.052Z,10.32
2023-05-21T01:43:47.995Z,10.13
2023-05-21T01:44:10.911Z,10.15
2023-05-21T01:44:33.720Z,10.52
2023-05-21T01:44:56.694Z,10.73
2023-05-21T01:45:19.530Z,10.57
2023-05-21T01:45:42.996Z,10.73
2023-05-21T01:46:05.985Z,10.52
2023-05-21T01:46:31.000Z,10.25
2023-05-21T01:46:54.385Z,9.88
2023-05-21T01:47:17.330Z,10.85
2023-05-21T01:47:40.201Z,10.30
2023-05-21T01:48:03.177Z,10.43
2023-05-21T01:48:27.576Z,10.20
2023-05-21T01:48:50.614Z,10.13
2023-05-21T01:49:13.601Z,10.63
2023-05-21T01:49:36.376Z,11.43
2023-05-21T01:49:59.672Z,10.95
2023-05-21T01:50:23.041Z,10.18
2023-05-21T01:50:46.407Z,10.38
2023-05-21T01:51:09.337Z,10.38
2023-05-21T01:51:32.446Z,10.35
2023-05-21T01:51:55.285Z,9.95
2023-05-21T01:52:18.207Z,10.00
2023-05-21T01:52:48.886Z,10.10
2023-05-21T01:53:13.459Z,10.80
2023-05-21T01:53:38.895Z,10.32
2023-05-21T01:54:02.396Z,10.45
2023-05-21T01:54:25.248Z,10.60
2023-05-21T01:54:51.432Z,10.13
2023-05-21T01:55:14.786Z,10.48
2023-05-21T01:55:42.101Z,10.32
2023-05-21T01:56:05.916Z,10.25
2023-05-21T01:56:28.753Z,10.23
2023-05-21T01:56:53.998Z,10.73
2023-05-21T01:57:17.227Z,10.30
2023-05-21T01:57:40.125Z,10.60
2023-05-21T01:58:03.178Z,10.82
2023-05-21T01:58:26.179Z,10.90
2023-05-21T01:58:50.157Z,10.30
2023-05-21T01:59:13.029Z,10.27
2023-05-21T01:59:36.531Z,11.07
2023-05-21T01:59:59.336Z,10.45
2023-05-21T02:00:22.337Z,10.65
2023-05-21T02:00:47.753Z,10.50
2023-05-21T02:01:11.930Z,10.35
2023-05-21T02:01:34.916Z,10.60
2023-05-21T02:01:58.767Z,10.27
2023-05-21T02:02:21.989Z,10.48
2023-05-21T02:02:45.082Z,10.82
2023-05-21T02:03:08.272Z,10.15
2023-05-21T02:03:31.934Z,10.40
2023-05-21T02:03:55.081Z,10.60
2023-05-21T02:04:18.142Z,10.65
2023-05-21T02:04:44.394Z,10.75
2023-05-21T02:05:08.882Z,10.70
2023-05-21T02:05:31.762Z,10.52
2023-05-21T02:05:55.895Z,10.23
2023-05-21T02:06:18.767Z,10.40
2023-05-21T02:06:41.986Z,10.32
2023-05-21T02:07:05.131Z,10.15
2023-05-21T02:07:29.199Z,10.13
2023-05-21T02:07:55.151Z,10.02
2023-05-21T02:08:20.221Z,10.40
2023-05-21T02:08:43.043Z,10.35
2023-05-21T02:09:05.843Z,9.98
2023-05-21T02:09:28.693Z,10.32
2023-05-21T02:09:51.567Z,10.27
2023-05-21T02:10:14.482Z,10.38
2023-05-21T02:10:37.334Z,10.35
2023-05-21T02:11:00.182Z,10.23
2023-05-21T02:11:23.776Z,10.10
2023-05-21T02:11:46.517Z,10.18
2023-05-21T02:12:09.440Z,9.88
2023-05-21T02:12:32.563Z,10.30
2023-05-21T02:12:55.396Z,10.80
2023-05-21T02:13:21.949Z,10.63
2023-05-21T02:13:46.392Z,11.02
2023-05-21T02:14:10.564Z,10.02
2023-05-21T02:14:36.618Z,10.75
2023-05-21T02:15:00.070Z,11.00
2023-05-21T02:15:25.035Z,10.77
2023-05-21T02:15:48.414Z,10.27
2023-05-21T02:16:11.978Z,10.70
2023-05-21T02:16:34.939Z,10.35
2023-05-21T02:16:58.150Z,10.73
2023-05-21T02:17:22.183Z,10.60
2023-05-21T02:17:45.023Z,10.35
2023-05-21T02:18:08.637Z,10.60
2023-05-21T02:18:31.519Z,10.52
2023-05-21T02:18:58.783Z,10.70
2023-05-21T02:19:21.774Z,10.13
2023-05-21T02:19:45.179Z,10.63
2023-05-21T02:20:12.240Z,10.63
2023-05-21T02:20:35.061Z,10.65
2023-05-21T02:20:57.821Z,10.18
2023-05-21T02:21:20.896Z,9.95
2023-05-21T02:21:43.645Z,10.40
2023-05-21T02:22:06.484Z,10.45
2023-05-21T02:22:29.349Z,10.13
2023-05-21T02:22:52.182Z,10.68
2023-05-21T02:23:15.066Z,11.05
2023-05-21T02:23:39.320Z,10.48
2023-05-21T02:24:02.140Z,10.48
2023-05-21T02:24:25.213Z,10.60
2023-05-21T02:24:48.037Z,10.82
2023-05-21T02:25:11.591Z,10.77
2023-05-21T02:25:34.549Z,10.48
2023-05-21T02:25:57.793Z,10.85
2023-05-21T02:26:22.697Z,11.20
2023-05-21T02:26:45.753Z,11.45
2023-05-21T02:27:10.654Z,11.40
2023-05-21T02:27:35.278Z,10.90
2023-05-21T02:27:58.144Z,10.57
2023-05-21T02:28:21.683Z,10.63
2023-05-21T02:28:44.867Z,10.50
2023-05-21T02:29:07.696Z,10.73
2023-05-21T02:29:30.750Z,10.88
2023-05-21T02:29:53.553Z,11.05
2023-05-21T02:30:16.460Z,10.90
2023-05-21T02:30:39.277Z,10.48
2023-05-21T02:31:02.053Z,11.05
2023-05-21T02:31:24.870Z,11.02
2023-05-21T02:31:47.736Z,10.32
2023-05-21T02:32:11.957Z,10.52
2023-05-21T02:32:35.236Z,11.20
2023-05-21T02:32:59.025Z,11.20
2023-05-21T02:33:22.132Z,11.52
2023-05-21T02:33:44.943Z,11.45
2023-05-21T02:34:08.318Z,11.98
2023-05-21T02:34:32.598Z,11.52
2023-05-21T02:34:55.460Z,11.55
2023-05-21T02:35:18.333Z,11.48
2023-05-21T02:35:41.927Z,11.55
2023-05-21T02:36:06.136Z,11.90
2023-05-21T02:36:29.016Z,11.93
2023-05-21T02:36:54.949Z,11.45
2023-05-21T02:37:19.276Z,11.20
2023-05-21T02:37:42.142Z,11.90
2023-05-21T02:38:04.979Z,11.15
2023-05-21T02:38:27.796Z,11.25
2023-05-21T02:38:52.008Z,11.68
2023-05-21T02:39:15.759Z,11.43
2023-05-21T02:39:38.686Z,12.25
2023-05-21T02:40:01.671Z,11.60
2023-05-21T02:40:25.397Z,12.57
2023-05-21T02:40:48.226Z,11.45
2023-05-21T02:41:11.611Z,11.85
2023-05-21T02:41:34.506Z,12.07
2023-05-21T02:41:57.292Z,12.10
2023-05-21T02:42:20.132Z,11.68
2023-05-21T02:42:42.932Z,11.35
2023-05-21T02:43:06.176Z,11.55
2023-05-21T02:43:28.921Z,11.90
2023-05-21T02:43:51.805Z,12.48
2023-05-21T02:44:14.732Z,12.30
2023-05-21T02:44:37.510Z,11.93
2023-05-21T02:45:00.756Z,11.73
2023-05-21T02:45:23.759Z,11.77
2023-05-21T02:45:46.866Z,12.05
2023-05-21T02:46:09.779Z,12.05
2023-05-21T02:46:33.015Z,12.18
2023-05-21T02:46:55.815Z,11.93
2023-05-21T02:47:19.424Z,12.20
2023-05-21T02:47:42.350Z,12.13
2023-05-21T02:48:05.695Z,11.80
2023-05-21T02:48:28.575Z,11.35
2023-05-21T02:48:51.421Z,11.30
2023-05-21T02:49:14.463Z,12.80
2023-05-21T02:49:37.292Z,12.43
2023-05-21T02:50:01.220Z,12.20
2023-05-21T02:50:24.112Z,12.30
2023-05-21T02:50:46.966Z,11.77
2023-05-21T02:51:09.733Z,11.90
2023-05-21T02:51:32.539Z,11.77
2023-05-21T02:51:58.048Z,12.05
2023-05-21T02:52:24.097Z,11.95
2023-05-21T02:52:46.938Z,11.63
2023-05-21T02:53:09.718Z,12.10
2023-05-21T02:53:32.495Z,12.98
2023-05-21T02:53:56.903Z,12.13
2023-05-21T02:54:19.798Z,12.10
2023-05-21T02:54:43.021Z,12.95
2023-05-21T02:55:07.373Z,12.23
2023-05-21T02:55:30.228Z,12.20
2023-05-21T02:55:53.094Z,12.52
2023-05-21T02:56:16.062Z,12.40
2023-05-21T02:56:38.947Z,12.30
2023-05-21T02:57:04.441Z,12.23
2023-05-21T02:57:27.247Z,12.68
2023-05-21T02:57:50.060Z,12.30
2023-05-21T02:58:14.027Z,12.32
2023-05-21T02:58:36.827Z,12.50
2023-05-21T02:58:59.562Z,12.43
2023-05-21T02:59:22.776Z,12.40
2023-05-21T02:59:46.698Z,12.85
2023-05-21T03:00:11.644Z,12.07
2023-05-21T03:00:34.555Z,13.80
2023-05-21T03:00:57.432Z,13.77
2023-05-21T03:01:20.278Z,13.50
2023-05-21T03:01:45.163Z,13.00
2023-05-21T03:02:08.106Z,12.93
2023-05-21T03:02:31.083Z,13.57
2023-05-21T03:02:54.006Z,12.88
2023-05-21T03:03:17.166Z,12.57
2023-05-21T03:03:40.212Z,12.50
2023-05-21T03:04:03.362Z,12.18
2023-05-21T03:04:28.397Z,13.30
2023-05-21T03:04:51.806Z,12.23
2023-05-21T03:05:14.582Z,12.50
2023-05-21T03:05:37.705Z,13.27
2023-05-21T03:06:00.996Z,13.13
2023-05-21T03:06:23.827Z,13.50
2023-05-21T03:06:46.788Z,13.10
2023-05-21T03:07:10.328Z,12.77
2023-05-21T03:07:33.367Z,12.40
2023-05-21T03:07:56.395Z,13.07
2023-05-21T03:08:19.320Z,12.77
2023-05-21T03:08:42.134Z,12.80
2023-05-21T03:09:06.488Z,12.95
2023-05-21T03:09:29.276Z,12.82
2023-05-21T03:09:52.135Z,12.65
2023-05-21T03:10:15.092Z,12.95
2023-05-21T03:10:37.937Z,12.82
2023-05-21T03:11:00.989Z,12.45
2023-05-21T03:11:23.721Z,12.75
2023-05-21T03:11:46.478Z,12.55
2023-05-21T03:12:09.622Z,12.75
2023-05-21T03:12:32.501Z,12.88
2023-05-21T03:12:55.247Z,13.20
2023-05-21T03:13:18.012Z,12.70
2023-05-21T03:13:40.976Z,12.82
2023-05-21T03:14:03.800Z,12.48
2023-05-21T03:14:26.585Z,12.20
2023-05-21T03:14:51.481Z,12.95
2023-05-21T03:15:18.367Z,12.70
2023-05-21T03:15:41.151Z,12.63
2023-05-21T03:16:04.528Z,12.60
2023-05-21T03:16:27.342Z,12.48
2023-05-21T03:16:51.799Z,12.57
2023-05-21T03:17:15.383Z,12.38
2023-05-21T03:17:38.304Z,13.20
2023-05-21T03:18:01.951Z,12.68
2023-05-21T03:18:25.008Z,12.18
2023-05-21T03:18:48.249Z,12.27
2023-05-21T03:19:11.640Z,12.90
2023-05-21T03:19:37.560Z,12.07
2023-05-21T03:20:00.382Z,12.88
2023-05-21T03:20:23.292Z,13.30
2023-05-21T03:20:46.036Z,12.68
2023-05-21T03:21:08.932Z,12.18
2023-05-21T03:21:32.360Z,11.77
2023-05-21T03:21:56.717Z,12.63
2023-05-21T03:22:20.153Z,13.25
2023-05-21T03:22:43.351Z,12.75
2023-05-21T03:23:06.694Z,12.95
2023-05-21T03:23:29.609Z,13.20
2023-05-21T03:23:53.178Z,12.27
2023-05-21T03:24:17.464Z,13.45
2023-05-21T03:24:40.233Z,12.35
2023-05-21T03:25:03.084Z,12.88
2023-05-21T03:25:25.905Z,12.73
2023-05-21T03:25:49.178Z,12.65
2023-05-21T03:26:14.403Z,12.25
2023-05-21T03:26:37.249Z,12.55
2023-05-21T03:27:01.528Z,12.32
2023-05-21T03:27:24.517Z,12.25
2023-05-21T03:27:47.694Z,12.93
2023-05-21T03:28:10.533Z,12.48
2023-05-21T03:28:33.348Z,12.77
2023-05-21T03:28:56.577Z,12.90
2023-05-21T03:29:19.358Z,12.35
2023-05-21T03:29:43.598Z,12.05
2023-05-21T03:30:08.243Z,12.82
2023-05-21T03:30:31.029Z,12.95
2023-05-21T03:30:54.332Z,12.27
2023-05-21T03:31:17.449Z,12.57
2023-05-21T03:31:40.306Z,12.38
2023-05-21T03:32:03.246Z,13.00
2023-05-21T03:32:26.159Z,12.68
2023-05-21T03:32:49.912Z,12.13
2023-05-21T03:33:14.159Z,12.45
2023-05-21T03:33:36.983Z,13.00
2023-05-21T03:33:59.825Z,12.70
2023-05-21T03:34:23.581Z,13.02
2023-05-21T03:34:46.384Z,12.63
2023-05-21T03:35:09.605Z,12.20
2023-05-21T03:35:32.373Z,12.25
2023-05-21T03:35:55.788Z,12.85
2023-05-21T03:36:18.699Z,12.85
2023-05-21T03:36:41.624Z,12.95
2023-05-21T03:37:04.725Z,12.55
2023-05-21T03:37:27.602Z,12.80
2023-05-21T03:37:50.429Z,12.23
2023-05-21T03:38:13.269Z,12.45
2023-05-21T03:38:37.132Z,12.63
2023-05-21T03:39:00.044Z,12.25
2023-05-21T03:39:24.382Z,12.38
2023-05-21T03:39:47.422Z,12.20
2023-05-21T03:40:11.338Z,12.05
2023-05-21T03:40:34.124Z,12.18
2023-05-21T03:40:56.955Z,11.95
2023-05-21T03:41:19.713Z,11.65
2023-05-21T03:41:42.647Z,12.45
2023-05-21T03:42:06.142Z,12.77
2023-05-21T03:42:28.908Z,12.10
2023-05-21T03:42:52.080Z,11.60
2023-05-21T03:43:14.995Z,11.80
2023-05-21T03:43:37.819Z,12.23
2023-05-21T03:44:01.209Z,11.82
2023-05-21T03:44:24.095Z,12.23
2023-05-21T03:44:47.055Z,12.10
2023-05-21T03:45:10.682Z,11.80
2023-05-21T03:45:33.745Z,12.17
2023-05-21T03:45:57.237Z,11.48
2023-05-21T03:46:20.206Z,11.95
2023-05-21T03:46:45.240Z,11.68
2023-05-21T03:47:08.325Z,11.52
2023-05-21T03:47:31.149Z,11.07
2023-05-21T03:47:54.127Z,11.68
2023-05-21T03:48:18.532Z,11.88
2023-05-21T03:48:42.154Z,11.40
2023-05-21T03:49:05.029Z,11.43
2023-05-21T03:49:27.896Z,11.90
2023-05-21T03:49:50.757Z,11.95
2023-05-21T03:50:13.572Z,11.80
2023-05-21T03:50:37.055Z,11.70
2023-05-21T03:50:59.957Z,11.50
2023-05-21T03:51:22.999Z,11.05
2023-05-21T03:51:45.783Z,10.70
2023-05-21T03:52:08.540Z,11.27
2023-05-21T03:52:31.313Z,11.43
2023-05-21T03:52:54.087Z,11.43
2023-05-21T03:53:16.929Z,11.00
2023-05-21T03:53:39.729Z,11.52
2023-05-21T03:54:02.525Z,11.07
2023-05-21T03:54:26.904Z,10.90
2023-05-21T03:54:49.819Z,11.10
2023-05-21T03:55:12.639Z,10.70
2023-05-21T03:55:36.571Z,11.48
2023-05-21T03:55:59.626Z,11.43
2023-05-21T03:56:23.287Z,11.02
2023-05-21T03:56:46.038Z,10.70
2023-05-21T03:57:08.955Z,10.57
2023-05-21T03:57:31.799Z,10.25
2023-05-21T03:57:54.672Z,10.23
2023-05-21T03:58:17.514Z,10.48
2023-05-21T03:58:40.942Z,10.75
2023-05-21T03:59:03.883Z,11.00
2023-05-21T03:59:26.617Z,10.68
2023-05-21T03:59:49.384Z,10.68
2023-05-21T04:00:12.980Z,10.40
2023-05-21T04:00:37.611Z,10.40
2023-05-21T04:01:02.016Z,10.20
2023-05-21T04:01:24.762Z,10.23
2023-05-21T04:01:47.589Z,10.00
2023-05-21T04:02:10.488Z,9.93
2023-05-21T04:02:33.573Z,10.45
2023-05-21T04:02:56.582Z,10.17
2023-05-21T04:03:19.826Z,10.23
2023-05-21T04:03:43.188Z,10.55
2023-05-21T04:04:06.516Z,10.85
2023-05-21T04:04:29.799Z,10.23
2023-05-21T04:04:53.796Z,10.00
2023-05-21T04:05:16.754Z,9.35
2023-05-21T04:05:39.558Z,9.00
2023-05-21T04:06:02.370Z,9.85
2023-05-21T04:06:25.175Z,10.02
2023-05-21T04:06:48.559Z,9.63
2023-05-21T04:07:14.971Z,9.43
2023-05-21T04:07:38.495Z,9.32
2023-05-21T04:08:01.420Z,9.63
2023-05-21T04:08:24.326Z,10.18
2023-05-21T04:08:47.167Z,9.88
2023-05-21T04:09:09.970Z,10.20
2023-05-21T04:09:36.515Z,10.57
2023-05-21T04:09:59.657Z,9.73
2023-05-21T04:10:23.286Z,10.27
2023-05-21T04:10:46.055Z,10.70
2023-05-21T04:11:09.339Z,10.52
2023-05-21T04:11:33.709Z,9.98
2023-05-21T04:11:56.443Z,9.57
2023-05-21T04:12:20.474Z,10.30
2023-05-21T04:12:43.443Z,10.13
2023-05-21T04:13:06.838Z,10.10
2023-05-21T04:13:29.655Z,9.95
2023-05-21T04:13:52.695Z,9.68
2023-05-21T04:14:15.584Z,10.00
2023-05-21T04:14:38.618Z,9.95
2023-05-21T04:15:02.751Z,10.18
2023-05-21T04:15:25.540Z,10.20
2023-05-21T04:15:49.101Z,9.70
2023-05-21T04:16:14.810Z,10.13
2023-05-21T04:16:39.052Z,9.88
2023-05-21T04:17:04.778Z,9.80
2023-05-21T04:17:28.663Z,9.43
2023-05-21T04:17:52.600Z,9.95
2023-05-21T04:18:20.740Z,9.90
2023-05-21T04:18:45.550Z,9.98
2023-05-21T04:19:08.856Z,10.05
2023-05-21T04:19:31.856Z,9.65
2023-05-21T04:19:54.816Z,9.70
2023-05-21T04:20:17.901Z,9.85
2023-05-21T04:20:40.873Z,9.70
2023-05-21T04:21:03.920Z,9.73
2023-05-21T04:21:26.700Z,9.98
2023-05-21T04:21:49.982Z,10.13
2023-05-21T04:22:12.842Z,10.15
2023-05-21T04:22:36.104Z,10.65
2023-05-21T04:22:58.982Z,10.05
2023-05-21T04:23:23.751Z,9.75
2023-05-21T04:23:46.925Z,9.98
2023-05-21T04:24:09.768Z,10.18
2023-05-21T04:24:34.128Z,10.20
2023-05-21T04:24:56.971Z,10.45
2023-05-21T04:25:20.597Z,11.00
2023-05-21T04:25:43.570Z,11.10
2023-05-21T04:26:07.933Z,10.75
2023-05-21T04:26:34.505Z,10.75
2023-05-21T04:27:01.636Z,10.98
2023-05-21T04:27:25.344Z,10.10
2023-05-21T04:27:48.718Z,10.48
2023-05-21T04:28:11.810Z,10.80
2023-05-21T04:28:35.756Z,10.70
2023-05-21T04:28:59.541Z,10.30
2023-05-21T04:29:22.437Z,10.50
2023-05-21T04:29:45.227Z,10.48
2023-05-21T04:30:08.840Z,10.43
2023-05-21T04:30:31.628Z,9.88
2023-05-21T04:30:57.389Z,10.20
2023-05-21T04:31:20.400Z,9.80
2023-05-21T04:31:43.293Z,10.40
2023-05-21T04:32:06.773Z,10.50
2023-05-21T04:32:31.157Z,10.27
2023-05-21T04:32:54.998Z,9.95
2023-05-21T04:33:18.502Z,9.15
2023-05-21T04:33:46.239Z,10.15
2023-05-21T04:34:09.314Z,10.00
2023-05-21T04:34:34.249Z,9.90
2023-05-21T04:34:57.082Z,9.82
2023-05-21T04:35:20.010Z,9.73
2023-05-21T04:35:44.892Z,9.85
2023-05-21T04:36:09.977Z,9.65
2023-05-21T04:36:34.158Z,9.65
2023-05-21T04:36:57.014Z,10.10
2023-05-21T04:37:19.892Z,9.95
2023-05-21T04:37:42.951Z,9.53
2023-05-21T04:38:05.948Z,9.82
2023-05-21T04:38:28.893Z,9.57
2023-05-21T04:38:51.739Z,9.73
2023-05-21T04:39:14.764Z,9.55
2023-05-21T04:39:41.152Z,9.50
2023-05-21T04:40:04.482Z,9.90
2023-05-21T04:40:27.265Z,9.43
2023-05-21T04:40:53.213Z,9.52
2023-05-21T04:41:19.165Z,9.98
2023-05-21T04:41:42.128Z,9.75
2023-05-21T04:42:05.394Z,9.10
2023-05-21T04:42:28.324Z,9.35
2023-05-21T04:42:51.248Z,9.07
2023-05-21T04:43:14.052Z,9.77
2023-05-21T04:43:36.914Z,9.75
2023-05-21T04:43:59.749Z,9.85
2023-05-21T04:44:22.680Z,10.38
2023-05-21T04:44:45.733Z,10.25
2023-05-21T04:45:10.693Z,9.85
2023-05-21T04:45:34.194Z,9.48
2023-05-21T04:45:57.192Z,10.18
2023-05-21T04:46:20.017Z,9.85
2023-05-21T04:46:46.303Z,9.63
2023-05-21T04:47:09.288Z,10.02
2023-05-21T04:47:35.987Z,9.88
2023-05-21T04:48:01.023Z,9.82
2023-05-21T04:48:27.627Z,10.18
2023-05-21T04:48:51.328Z,10.13
2023-05-21T04:49:14.556Z,9.82
2023-05-21T04:49:37.374Z,10.35
2023-05-21T04:50:00.262Z,10.15
2023-05-21T04:50:23.586Z,10.02
2023-05-21T04:50:46.959Z,10.30
2023-05-21T04:51:09.764Z,10.15
2023-05-21T04:51:32.670Z,10.18
2023-05-21T04:51:55.670Z,9.80
2023-05-21T04:52:18.775Z,10.10
2023-05-21T04:52:42.062Z,10.68
2023-05-21T04:53:05.205Z,9.77
2023-05-21T04:53:29.319Z,9.93
2023-05-21T04:53:52.187Z,10.15
2023-05-21T04:54:14.995Z,9.95
2023-05-21T04:54:42.163Z,9.88
2023-05-21T04:55:05.795Z,10.05
2023-05-21T04:55:29.229Z,10.05
2023-05-21T04:55:52.031Z,10.13
2023-05-21T04:56:15.211Z,9.85
2023-05-21T04:56:37.985Z,10.15
2023-05-21T04:57:00.763Z,10.38
2023-05-21T04:57:25.442Z,10.27
2023-05-21T04:57:48.351Z,9.85
2023-05-21T04:58:11.466Z,10.20
2023-05-21T04:58:34.510Z,9.82
2023-05-21T04:58:59.138Z,9.52
2023-05-21T04:59:23.181Z,9.77
2023-05-21T04:59:47.461Z,9.43
2023-05-21T05:00:11.910Z,9.35
2023-05-21T05:00:34.725Z,9.88
2023-05-21T05:00:58.104Z,9.68
2023-05-21T05:01:23.872Z,9.70
2023-05-21T05:01:46.889Z,9.65
2023-05-21T05:02:09.671Z,9.55
2023-05-21T05:02:32.539Z,9.65
2023-05-21T05:02:57.279Z,9.75
2023-05-21T05:03:20.241Z,10.38
2023-05-21T05:03:43.479Z,9.73
2023-05-21T05:04:06.566Z,9.10
2023-05-21T05:04:29.558Z,9.13
2023-05-21T05:04:52.458Z,9.30
2023-05-21T05:05:15.258Z,8.73
2023-05-21T05:05:38.539Z,9.10